Saint Boswells, United Kingdom
Current Conditions -  °F | °C
As of 9:50 PM on Saturday 20 Dec 2014 (Local Time) from EGOM Reporting Station
Broken Clouds Broken Clouds  
Wind Chill: 33°   Ceiling: 200
Heat Index: 41°   Visibility: 6mi
Dew Point: 41°   Wind: 14mph
Humidity: 100%   Direction: 240°WSW
Pressure: 30.21"   Gusts: NA
Location:  55.57°N, 2.64°W
Report Text: EGOM 202150Z AUTO 24012KT 9999 BKN002/// BKN013/// 05/05 Q1023
Loading
Personal Weather Stations






























Interactive Weather Map New forecast layout! Learn more

10-Day Weather Forecast

Advertisements
Track Severe Weather on mobile